sensor_id;sensor_type;location;lat;lon;timestamp;P1;durP1;ratioP1;P2;durP2;ratioP2
60979;SDS011;46851;49.160;8.980;2023-02-28T00:01:17;6.50;;;3.75;;
60979;SDS011;46851;49.160;8.980;2023-02-28T00:03:43;6.22;;;4.00;;
60979;SDS011;46851;49.160;8.980;2023-02-28T00:06:09;7.22;;;3.60;;
60979;SDS011;46851;49.160;8.980;2023-02-28T00:08:36;5.20;;;4.05;;
60979;SDS011;46851;49.160;8.980;2023-02-28T00:11:02;5.93;;;3.90;;
60979;SDS011;46851;49.160;8.980;2023-02-28T00:13:28;4.82;;;3.90;;
60979;SDS011;46851;49.160;8.980;2023-02-28T00:15:59;4.10;;;3.67;;
60979;SDS011;46851;49.160;8.980;2023-02-28T00:18:25;6.95;;;4.35;;
60979;SDS011;46851;49.160;8.980;2023-02-28T00:20:51;5.63;;;3.78;;
60979;SDS011;46851;49.160;8.980;2023-02-28T00:23:17;6.93;;;4.05;;
60979;SDS011;46851;49.160;8.980;2023-02-28T00:25:43;5.93;;;3.85;;
60979;SDS011;46851;49.160;8.980;2023-02-28T00:28:09;5.68;;;3.95;;
60979;SDS011;46851;49.160;8.980;2023-02-28T00:30:35;5.43;;;4.25;;
60979;SDS011;46851;49.160;8.980;2023-02-28T00:33:01;5.65;;;4.13;;
60979;SDS011;46851;49.160;8.980;2023-02-28T00:35:27;5.20;;;3.70;;
60979;SDS011;46851;49.160;8.980;2023-02-28T00:37:53;6.30;;;4.65;;
60979;SDS011;46851;49.160;8.980;2023-02-28T00:40:19;5.97;;;4.05;;
60979;SDS011;46851;49.160;8.980;2023-02-28T00:42:45;6.28;;;4.82;;
60979;SDS011;46851;49.160;8.980;2023-02-28T00:45:11;5.00;;;3.80;;
60979;SDS011;46851;49.160;8.980;2023-02-28T00:47:37;4.38;;;3.50;;
60979;SDS011;46851;49.160;8.980;2023-02-28T00:50:04;7.85;;;4.18;;
60979;SDS011;46851;49.160;8.980;2023-02-28T00:52:30;4.85;;;4.03;;
60979;SDS011;46851;49.160;8.980;2023-02-28T00:54:56;6.03;;;4.40;;
60979;SDS011;46851;49.160;8.980;2023-02-28T00:57:22;4.82;;;4.30;;
60979;SDS011;46851;49.160;8.980;2023-02-28T00:59:48;5.35;;;4.15;;
60979;SDS011;46851;49.160;8.980;2023-02-28T01:02:14;6.82;;;5.07;;
60979;SDS011;46851;49.160;8.980;2023-02-28T01:04:40;5.18;;;4.10;;
60979;SDS011;46851;49.160;8.980;2023-02-28T01:07:06;6.93;;;4.35;;
60979;SDS011;46851;49.160;8.980;2023-02-28T01:09:32;6.45;;;4.75;;
60979;SDS011;46851;49.160;8.980;2023-02-28T01:11:58;5.03;;;3.97;;
60979;SDS011;46851;49.160;8.980;2023-02-28T01:14:24;6.82;;;4.60;;
60979;SDS011;46851;49.160;8.980;2023-02-28T01:16:50;6.90;;;4.45;;
60979;SDS011;46851;49.160;8.980;2023-02-28T01:19:16;5.60;;;3.97;;
60979;SDS011;46851;49.160;8.980;2023-02-28T01:21:42;7.70;;;4.65;;
60979;SDS011;46851;49.160;8.980;2023-02-28T01:24:08;5.63;;;4.45;;
60979;SDS011;46851;49.160;8.980;2023-02-28T01:26:34;7.18;;;5.15;;
60979;SDS011;46851;49.160;8.980;2023-02-28T01:29:00;5.43;;;4.47;;
60979;SDS011;46851;49.160;8.980;2023-02-28T01:31:26;10.57;;;5.15;;
60979;SDS011;46851;49.160;8.980;2023-02-28T01:33:52;7.88;;;4.65;;
60979;SDS011;46851;49.160;8.980;2023-02-28T01:36:20;11.32;;;4.90;;
60979;SDS011;46851;49.160;8.980;2023-02-28T01:38:46;6.97;;;4.20;;
60979;SDS011;46851;49.160;8.980;2023-02-28T01:41:14;7.63;;;5.07;;
60979;SDS011;46851;49.160;8.980;2023-02-28T01:46:10;5.93;;;4.43;;
60979;SDS011;46851;49.160;8.980;2023-02-28T01:48:38;9.52;;;4.68;;
60979;SDS011;46851;49.160;8.980;2023-02-28T01:51:05;7.65;;;4.85;;
60979;SDS011;46851;49.160;8.980;2023-02-28T01:53:52;8.25;;;5.68;;
60979;SDS011;46851;49.160;8.980;2023-02-28T01:56:20;5.63;;;4.57;;
60979;SDS011;46851;49.160;8.980;2023-02-28T01:58:51;6.70;;;4.60;;
60979;SDS011;46851;49.160;8.980;2023-02-28T02:01:18;6.43;;;4.45;;
60979;SDS011;46851;49.160;8.980;2023-02-28T02:03:51;7.13;;;4.85;;
60979;SDS011;46851;49.160;8.980;2023-02-28T02:06:21;8.82;;;5.25;;
60979;SDS011;46851;49.160;8.980;2023-02-28T02:08:48;5.93;;;4.75;;
60979;SDS011;46851;49.160;8.980;2023-02-28T02:11:14;12.75;;;7.00;;
60979;SDS011;46851;49.160;8.980;2023-02-28T02:24:28;6.93;;;5.40;;
60979;SDS011;46851;49.160;8.980;2023-02-28T02:29:46;7.50;;;5.93;;
60979;SDS011;46851;49.160;8.980;2023-02-28T02:37:24;6.18;;;4.85;;
60979;SDS011;46851;49.160;8.980;2023-02-28T02:40:04;8.55;;;5.80;;
60979;SDS011;46851;49.160;8.980;2023-02-28T02:42:39;7.47;;;5.55;;
60979;SDS011;46851;49.160;8.980;2023-02-28T02:45:09;9.80;;;5.20;;
60979;SDS011;46851;49.160;8.980;2023-02-28T02:47:36;7.40;;;5.50;;
60979;SDS011;46851;49.160;8.980;2023-02-28T02:50:04;7.22;;;5.38;;
60979;SDS011;46851;49.160;8.980;2023-02-28T02:52:34;8.68;;;5.80;;
60979;SDS011;46851;49.160;8.980;2023-02-28T02:57:38;6.90;;;4.95;;
60979;SDS011;46851;49.160;8.980;2023-02-28T03:11:18;8.75;;;5.18;;
60979;SDS011;46851;49.160;8.980;2023-02-28T03:19:18;7.72;;;5.28;;
60979;SDS011;46851;49.160;8.980;2023-02-28T03:21:53;8.20;;;5.38;;
60979;SDS011;46851;49.160;8.980;2023-02-28T03:24:29;11.63;;;6.07;;
60979;SDS011;46851;49.160;8.980;2023-02-28T03:26:58;7.80;;;5.90;;
60979;SDS011;46851;49.160;8.980;2023-02-28T03:32:00;10.60;;;6.35;;
60979;SDS011;46851;49.160;8.980;2023-02-28T03:34:33;9.18;;;5.13;;
60979;SDS011;46851;49.160;8.980;2023-02-28T03:37:02;11.27;;;5.63;;
60979;SDS011;46851;49.160;8.980;2023-02-28T03:42:22;12.75;;;5.63;;
60979;SDS011;46851;49.160;8.980;2023-02-28T03:44:51;10.63;;;5.65;;
60979;SDS011;46851;49.160;8.980;2023-02-28T03:47:23;10.18;;;5.72;;
60979;SDS011;46851;49.160;8.980;2023-02-28T03:52:19;9.93;;;6.15;;
60979;SDS011;46851;49.160;8.980;2023-02-28T03:54:48;7.57;;;5.40;;
60979;SDS011;46851;49.160;8.980;2023-02-28T03:59:50;7.57;;;5.38;;
60979;SDS011;46851;49.160;8.980;2023-02-28T04:02:18;8.48;;;6.20;;
60979;SDS011;46851;49.160;8.980;2023-02-28T04:04:44;8.48;;;5.40;;
60979;SDS011;46851;49.160;8.980;2023-02-28T04:07:13;9.38;;;5.60;;
60979;SDS011;46851;49.160;8.980;2023-02-28T04:09:39;10.80;;;5.70;;
60979;SDS011;46851;49.160;8.980;2023-02-28T04:12:05;9.05;;;6.00;;
60979;SDS011;46851;49.160;8.980;2023-02-28T04:14:31;8.23;;;5.63;;
60979;SDS011;46851;49.160;8.980;2023-02-28T04:16:57;9.23;;;5.90;;
60979;SDS011;46851;49.160;8.980;2023-02-28T04:19:23;7.93;;;6.05;;
60979;SDS011;46851;49.160;8.980;2023-02-28T04:21:50;9.18;;;5.30;;
60979;SDS011;46851;49.160;8.980;2023-02-28T04:24:17;8.68;;;5.80;;
60979;SDS011;46851;49.160;8.980;2023-02-28T04:26:48;15.60;;;5.97;;
60979;SDS011;46851;49.160;8.980;2023-02-28T04:29:17;8.75;;;5.80;;
60979;SDS011;46851;49.160;8.980;2023-02-28T04:31:44;8.23;;;5.72;;
60979;SDS011;46851;49.160;8.980;2023-02-28T04:34:10;7.90;;;5.55;;
60979;SDS011;46851;49.160;8.980;2023-02-28T04:36:36;7.75;;;5.15;;
60979;SDS011;46851;49.160;8.980;2023-02-28T04:39:02;9.82;;;5.68;;
60979;SDS011;46851;49.160;8.980;2023-02-28T04:41:29;8.75;;;6.07;;
60979;SDS011;46851;49.160;8.980;2023-02-28T04:43:55;10.55;;;6.20;;
60979;SDS011;46851;49.160;8.980;2023-02-28T04:46:21;8.65;;;5.72;;
60979;SDS011;46851;49.160;8.980;2023-02-28T04:48:47;9.05;;;5.38;;
60979;SDS011;46851;49.160;8.980;2023-02-28T04:51:14;7.15;;;5.78;;
60979;SDS011;46851;49.160;8.980;2023-02-28T04:53:41;11.52;;;6.55;;
60979;SDS011;46851;49.160;8.980;2023-02-28T04:56:07;7.90;;;5.50;;
60979;SDS011;46851;49.160;8.980;2023-02-28T04:58:34;9.73;;;5.72;;
60979;SDS011;46851;49.160;8.980;2023-02-28T05:01:04;8.93;;;5.85;;
60979;SDS011;46851;49.160;8.980;2023-02-28T05:03:37;9.35;;;5.68;;
60979;SDS011;46851;49.160;8.980;2023-02-28T05:06:03;12.75;;;5.75;;
60979;SDS011;46851;49.160;8.980;2023-02-28T05:08:29;8.70;;;6.20;;
60979;SDS011;46851;49.160;8.980;2023-02-28T05:10:55;9.82;;;5.88;;
60979;SDS011;46851;49.160;8.980;2023-02-28T05:13:21;8.45;;;5.95;;
60979;SDS011;46851;49.160;8.980;2023-02-28T05:15:48;10.23;;;6.13;;
60979;SDS011;46851;49.160;8.980;2023-02-28T05:18:14;9.15;;;5.45;;
60979;SDS011;46851;49.160;8.980;2023-02-28T05:20:40;10.68;;;5.80;;
60979;SDS011;46851;49.160;8.980;2023-02-28T05:23:06;11.63;;;6.22;;
60979;SDS011;46851;49.160;8.980;2023-02-28T05:25:32;9.05;;;6.43;;
60979;SDS011;46851;49.160;8.980;2023-02-28T05:27:58;9.07;;;6.80;;
60979;SDS011;46851;49.160;8.980;2023-02-28T05:30:24;9.43;;;6.07;;
60979;SDS011;46851;49.160;8.980;2023-02-28T05:32:50;9.02;;;6.35;;
60979;SDS011;46851;49.160;8.980;2023-02-28T05:35:16;9.68;;;6.18;;
60979;SDS011;46851;49.160;8.980;2023-02-28T05:37:43;9.10;;;6.20;;
60979;SDS011;46851;49.160;8.980;2023-02-28T05:40:09;11.05;;;6.22;;
60979;SDS011;46851;49.160;8.980;2023-02-28T05:42:35;12.45;;;6.95;;
60979;SDS011;46851;49.160;8.980;2023-02-28T05:45:02;10.07;;;6.20;;
60979;SDS011;46851;49.160;8.980;2023-02-28T05:47:28;18.73;;;5.93;;
60979;SDS011;46851;49.160;8.980;2023-02-28T05:49:54;9.57;;;6.70;;
60979;SDS011;46851;49.160;8.980;2023-02-28T05:52:20;9.18;;;5.57;;
60979;SDS011;46851;49.160;8.980;2023-02-28T05:54:46;8.88;;;6.45;;
60979;SDS011;46851;49.160;8.980;2023-02-28T05:57:12;12.02;;;7.15;;
60979;SDS011;46851;49.160;8.980;2023-02-28T05:59:38;9.48;;;6.18;;
60979;SDS011;46851;49.160;8.980;2023-02-28T06:02:05;8.65;;;6.20;;
60979;SDS011;46851;49.160;8.980;2023-02-28T06:04:31;13.82;;;6.90;;
60979;SDS011;46851;49.160;8.980;2023-02-28T06:06:58;11.75;;;6.82;;
60979;SDS011;46851;49.160;8.980;2023-02-28T06:09:24;9.43;;;6.55;;
60979;SDS011;46851;49.160;8.980;2023-02-28T06:11:50;12.73;;;6.85;;
60979;SDS011;46851;49.160;8.980;2023-02-28T06:14:17;9.90;;;6.97;;
60979;SDS011;46851;49.160;8.980;2023-02-28T06:16:43;16.70;;;7.68;;
60979;SDS011;46851;49.160;8.980;2023-02-28T06:19:09;12.70;;;7.65;;
60979;SDS011;46851;49.160;8.980;2023-02-28T06:21:35;14.65;;;8.07;;
60979;SDS011;46851;49.160;8.980;2023-02-28T06:24:02;11.20;;;7.15;;
60979;SDS011;46851;49.160;8.980;2023-02-28T06:26:28;14.05;;;9.68;;
60979;SDS011;46851;49.160;8.980;2023-02-28T06:28:54;10.30;;;7.47;;
60979;SDS011;46851;49.160;8.980;2023-02-28T06:31:20;13.38;;;8.07;;
60979;SDS011;46851;49.160;8.980;2023-02-28T06:33:47;12.02;;;7.57;;
60979;SDS011;46851;49.160;8.980;2023-02-28T06:36:14;10.50;;;8.02;;
60979;SDS011;46851;49.160;8.980;2023-02-28T06:38:40;13.20;;;9.18;;
60979;SDS011;46851;49.160;8.980;2023-02-28T06:41:06;11.77;;;7.55;;
60979;SDS011;46851;49.160;8.980;2023-02-28T06:43:33;10.25;;;7.35;;
60979;SDS011;46851;49.160;8.980;2023-02-28T06:46:00;10.95;;;7.47;;
60979;SDS011;46851;49.160;8.980;2023-02-28T06:48:27;9.98;;;6.82;;
60979;SDS011;46851;49.160;8.980;2023-02-28T06:51:15;10.32;;;7.20;;
60979;SDS011;46851;49.160;8.980;2023-02-28T06:53:39;14.88;;;7.82;;
60979;SDS011;46851;49.160;8.980;2023-02-28T06:56:06;12.82;;;7.80;;
60979;SDS011;46851;49.160;8.980;2023-02-28T06:58:32;13.73;;;7.97;;
60979;SDS011;46851;49.160;8.980;2023-02-28T07:00:59;12.00;;;7.10;;
60979;SDS011;46851;49.160;8.980;2023-02-28T07:03:25;10.52;;;7.20;;
60979;SDS011;46851;49.160;8.980;2023-02-28T07:05:51;10.88;;;7.75;;
60979;SDS011;46851;49.160;8.980;2023-02-28T07:08:17;10.68;;;6.78;;
60979;SDS011;46851;49.160;8.980;2023-02-28T07:10:43;10.73;;;7.22;;
60979;SDS011;46851;49.160;8.980;2023-02-28T07:13:10;10.63;;;7.65;;
60979;SDS011;46851;49.160;8.980;2023-02-28T07:15:36;11.27;;;7.68;;
60979;SDS011;46851;49.160;8.980;2023-02-28T07:18:02;9.80;;;6.15;;
60979;SDS011;46851;49.160;8.980;2023-02-28T07:20:28;12.65;;;6.35;;
60979;SDS011;46851;49.160;8.980;2023-02-28T07:22:55;12.25;;;7.50;;
60979;SDS011;46851;49.160;8.980;2023-02-28T07:25:24;10.93;;;6.65;;
60979;SDS011;46851;49.160;8.980;2023-02-28T07:27:51;14.35;;;6.38;;
60979;SDS011;46851;49.160;8.980;2023-02-28T07:30:17;13.38;;;7.15;;
60979;SDS011;46851;49.160;8.980;2023-02-28T07:32:43;12.57;;;7.63;;
60979;SDS011;46851;49.160;8.980;2023-02-28T07:35:09;10.23;;;6.60;;
60979;SDS011;46851;49.160;8.980;2023-02-28T07:37:36;13.80;;;7.40;;
60979;SDS011;46851;49.160;8.980;2023-02-28T07:40:05;10.48;;;6.78;;
60979;SDS011;46851;49.160;8.980;2023-02-28T07:42:33;10.88;;;6.78;;
60979;SDS011;46851;49.160;8.980;2023-02-28T07:44:59;11.18;;;7.03;;
60979;SDS011;46851;49.160;8.980;2023-02-28T07:47:25;10.10;;;6.55;;
60979;SDS011;46851;49.160;8.980;2023-02-28T07:49:51;11.57;;;7.13;;
60979;SDS011;46851;49.160;8.980;2023-02-28T07:52:17;10.55;;;7.97;;
60979;SDS011;46851;49.160;8.980;2023-02-28T07:54:43;21.48;;;10.93;;
60979;SDS011;46851;49.160;8.980;2023-02-28T07:57:09;8.80;;;6.30;;
60979;SDS011;46851;49.160;8.980;2023-02-28T07:59:35;10.43;;;5.57;;
60979;SDS011;46851;49.160;8.980;2023-02-28T08:02:01;10.45;;;5.72;;
60979;SDS011;46851;49.160;8.980;2023-02-28T08:04:27;10.55;;;6.13;;
60979;SDS011;46851;49.160;8.980;2023-02-28T08:06:57;9.90;;;6.10;;
60979;SDS011;46851;49.160;8.980;2023-02-28T08:09:23;13.93;;;6.63;;
60979;SDS011;46851;49.160;8.980;2023-02-28T08:11:49;7.50;;;5.22;;
60979;SDS011;46851;49.160;8.980;2023-02-28T08:14:15;8.40;;;6.05;;
60979;SDS011;46851;49.160;8.980;2023-02-28T08:16:41;8.77;;;6.30;;
60979;SDS011;46851;49.160;8.980;2023-02-28T08:19:08;12.60;;;6.80;;
60979;SDS011;46851;49.160;8.980;2023-02-28T08:21:34;12.18;;;6.53;;
60979;SDS011;46851;49.160;8.980;2023-02-28T08:24:00;8.27;;;5.75;;
60979;SDS011;46851;49.160;8.980;2023-02-28T08:26:26;10.80;;;6.60;;
60979;SDS011;46851;49.160;8.980;2023-02-28T08:28:52;9.10;;;6.28;;
60979;SDS011;46851;49.160;8.980;2023-02-28T08:31:18;9.68;;;5.97;;
60979;SDS011;46851;49.160;8.980;2023-02-28T08:33:44;11.65;;;6.82;;
60979;SDS011;46851;49.160;8.980;2023-02-28T08:36:11;9.07;;;5.97;;
60979;SDS011;46851;49.160;8.980;2023-02-28T08:38:37;11.48;;;7.65;;
60979;SDS011;46851;49.160;8.980;2023-02-28T08:41:04;11.40;;;5.95;;
60979;SDS011;46851;49.160;8.980;2023-02-28T08:43:32;8.95;;;6.05;;
60979;SDS011;46851;49.160;8.980;2023-02-28T08:45:58;10.52;;;5.97;;
60979;SDS011;46851;49.160;8.980;2023-02-28T08:48:26;10.13;;;6.97;;
60979;SDS011;46851;49.160;8.980;2023-02-28T08:50:56;10.68;;;6.75;;
60979;SDS011;46851;49.160;8.980;2023-02-28T08:53:22;8.55;;;6.40;;
60979;SDS011;46851;49.160;8.980;2023-02-28T08:55:55;7.80;;;5.90;;
60979;SDS011;46851;49.160;8.980;2023-02-28T08:58:21;10.10;;;7.18;;
60979;SDS011;46851;49.160;8.980;2023-02-28T09:00:47;10.07;;;6.30;;
60979;SDS011;46851;49.160;8.980;2023-02-28T09:03:13;7.70;;;5.68;;
60979;SDS011;46851;49.160;8.980;2023-02-28T09:05:39;8.70;;;6.22;;
60979;SDS011;46851;49.160;8.980;2023-02-28T09:08:05;9.90;;;6.55;;
60979;SDS011;46851;49.160;8.980;2023-02-28T09:10:31;9.25;;;6.45;;
60979;SDS011;46851;49.160;8.980;2023-02-28T09:12:57;10.27;;;6.63;;
60979;SDS011;46851;49.160;8.980;2023-02-28T09:15:23;9.85;;;6.53;;
60979;SDS011;46851;49.160;8.980;2023-02-28T09:17:49;12.68;;;6.57;;
60979;SDS011;46851;49.160;8.980;2023-02-28T09:20:15;11.57;;;6.45;;
60979;SDS011;46851;49.160;8.980;2023-02-28T09:22:41;10.02;;;7.32;;
60979;SDS011;46851;49.160;8.980;2023-02-28T09:25:07;11.05;;;5.60;;
60979;SDS011;46851;49.160;8.980;2023-02-28T09:27:33;8.98;;;6.60;;
60979;SDS011;46851;49.160;8.980;2023-02-28T09:29:59;11.55;;;7.03;;
60979;SDS011;46851;49.160;8.980;2023-02-28T09:32:25;9.68;;;6.15;;
60979;SDS011;46851;49.160;8.980;2023-02-28T09:34:52;11.70;;;7.80;;
60979;SDS011;46851;49.160;8.980;2023-02-28T09:37:18;10.05;;;6.90;;
60979;SDS011;46851;49.160;8.980;2023-02-28T09:39:44;11.50;;;7.10;;
60979;SDS011;46851;49.160;8.980;2023-02-28T09:42:21;10.57;;;6.88;;
60979;SDS011;46851;49.160;8.980;2023-02-28T09:44:49;8.27;;;6.50;;
60979;SDS011;46851;49.160;8.980;2023-02-28T09:47:18;9.15;;;6.10;;
60979;SDS011;46851;49.160;8.980;2023-02-28T09:49:47;8.82;;;6.20;;
60979;SDS011;46851;49.160;8.980;2023-02-28T09:52:15;8.63;;;6.18;;
60979;SDS011;46851;49.160;8.980;2023-02-28T09:54:42;13.18;;;6.93;;
60979;SDS011;46851;49.160;8.980;2023-02-28T10:04:41;11.73;;;7.18;;
60979;SDS011;46851;49.160;8.980;2023-02-28T10:07:20;10.27;;;6.53;;
60979;SDS011;46851;49.160;8.980;2023-02-28T10:09:49;11.30;;;7.27;;
60979;SDS011;46851;49.160;8.980;2023-02-28T10:12:17;12.18;;;6.93;;
60979;SDS011;46851;49.160;8.980;2023-02-28T10:14:46;9.50;;;7.43;;
60979;SDS011;46851;49.160;8.980;2023-02-28T10:17:23;11.90;;;8.40;;
60979;SDS011;46851;49.160;8.980;2023-02-28T10:22:34;12.25;;;8.00;;
60979;SDS011;46851;49.160;8.980;2023-02-28T10:25:04;11.20;;;7.80;;
60979;SDS011;46851;49.160;8.980;2023-02-28T10:27:31;13.20;;;7.43;;
60979;SDS011;46851;49.160;8.980;2023-02-28T10:29:59;12.60;;;7.07;;
60979;SDS011;46851;49.160;8.980;2023-02-28T10:32:32;15.40;;;7.22;;
60979;SDS011;46851;49.160;8.980;2023-02-28T10:35:19;10.13;;;7.13;;
60979;SDS011;46851;49.160;8.980;2023-02-28T10:37:55;12.02;;;7.70;;
60979;SDS011;46851;49.160;8.980;2023-02-28T10:43:02;14.38;;;8.18;;
60979;SDS011;46851;49.160;8.980;2023-02-28T10:45:29;10.65;;;7.00;;
60979;SDS011;46851;49.160;8.980;2023-02-28T10:50:27;10.82;;;7.53;;
60979;SDS011;46851;49.160;8.980;2023-02-28T10:52:53;12.45;;;7.35;;
60979;SDS011;46851;49.160;8.980;2023-02-28T10:55:23;10.90;;;7.25;;
60979;SDS011;46851;49.160;8.980;2023-02-28T10:57:50;13.63;;;7.63;;
60979;SDS011;46851;49.160;8.980;2023-02-28T11:00:18;11.02;;;7.07;;
60979;SDS011;46851;49.160;8.980;2023-02-28T11:02:46;13.35;;;7.47;;
60979;SDS011;46851;49.160;8.980;2023-02-28T11:07:55;10.98;;;7.32;;
60979;SDS011;46851;49.160;8.980;2023-02-28T11:10:23;11.32;;;7.50;;
60979;SDS011;46851;49.160;8.980;2023-02-28T11:12:53;10.10;;;7.40;;
60979;SDS011;46851;49.160;8.980;2023-02-28T11:15:24;12.00;;;7.32;;
60979;SDS011;46851;49.160;8.980;2023-02-28T11:20:26;10.30;;;6.82;;
60979;SDS011;46851;49.160;8.980;2023-02-28T11:22:53;11.50;;;7.35;;
60979;SDS011;46851;49.160;8.980;2023-02-28T11:25:27;12.05;;;7.72;;
60979;SDS011;46851;49.160;8.980;2023-02-28T11:27:55;20.17;;;7.85;;
60979;SDS011;46851;49.160;8.980;2023-02-28T11:30:23;12.25;;;7.40;;
60979;SDS011;46851;49.160;8.980;2023-02-28T11:32:50;14.57;;;7.93;;
60979;SDS011;46851;49.160;8.980;2023-02-28T11:35:30;12.00;;;8.15;;
60979;SDS011;46851;49.160;8.980;2023-02-28T11:37:59;12.25;;;7.07;;
60979;SDS011;46851;49.160;8.980;2023-02-28T11:40:30;13.40;;;7.80;;
60979;SDS011;46851;49.160;8.980;2023-02-28T11:45:35;11.93;;;7.93;;
60979;SDS011;46851;49.160;8.980;2023-02-28T11:48:18;11.93;;;8.85;;
60979;SDS011;46851;49.160;8.980;2023-02-28T12:08:44;11.57;;;8.35;;
60979;SDS011;46851;49.160;8.980;2023-02-28T12:11:19;14.57;;;9.77;;
60979;SDS011;46851;49.160;8.980;2023-02-28T12:23:56;18.98;;;9.38;;
60979;SDS011;46851;49.160;8.980;2023-02-28T12:26:28;14.10;;;9.02;;
60979;SDS011;46851;49.160;8.980;2023-02-28T12:29:17;13.73;;;9.32;;
60979;SDS011;46851;49.160;8.980;2023-02-28T12:34:22;13.85;;;9.48;;
60979;SDS011;46851;49.160;8.980;2023-02-28T12:36:51;12.60;;;8.60;;
60979;SDS011;46851;49.160;8.980;2023-02-28T12:39:23;13.98;;;8.73;;
60979;SDS011;46851;49.160;8.980;2023-02-28T12:41:51;12.57;;;8.88;;
60979;SDS011;46851;49.160;8.980;2023-02-28T12:44:20;14.40;;;10.20;;
60979;SDS011;46851;49.160;8.980;2023-02-28T12:46:48;13.95;;;9.25;;
60979;SDS011;46851;49.160;8.980;2023-02-28T12:49:16;15.73;;;8.95;;
60979;SDS011;46851;49.160;8.980;2023-02-28T12:51:43;22.42;;;10.75;;
60979;SDS011;46851;49.160;8.980;2023-02-28T12:59:15;15.13;;;9.13;;
60979;SDS011;46851;49.160;8.980;2023-02-28T13:01:52;15.27;;;8.77;;
60979;SDS011;46851;49.160;8.980;2023-02-28T13:04:28;12.48;;;8.68;;
60979;SDS011;46851;49.160;8.980;2023-02-28T13:09:33;14.43;;;9.27;;
60979;SDS011;46851;49.160;8.980;2023-02-28T13:11:59;16.38;;;9.18;;
60979;SDS011;46851;49.160;8.980;2023-02-28T13:19:21;13.63;;;9.77;;
60979;SDS011;46851;49.160;8.980;2023-02-28T13:21:48;15.80;;;9.82;;
60979;SDS011;46851;49.160;8.980;2023-02-28T13:29:30;14.32;;;9.00;;
60979;SDS011;46851;49.160;8.980;2023-02-28T13:34:37;13.00;;;9.10;;
60979;SDS011;46851;49.160;8.980;2023-02-28T13:52:44;14.45;;;10.02;;
60979;SDS011;46851;49.160;8.980;2023-02-28T13:55:35;23.90;;;13.52;;
60979;SDS011;46851;49.160;8.980;2023-02-28T13:58:14;14.57;;;10.20;;
60979;SDS011;46851;49.160;8.980;2023-02-28T14:01:08;17.02;;;11.60;;
60979;SDS011;46851;49.160;8.980;2023-02-28T14:06:18;15.85;;;10.35;;
60979;SDS011;46851;49.160;8.980;2023-02-28T14:09:02;15.57;;;9.75;;
60979;SDS011;46851;49.160;8.980;2023-02-28T14:11:33;16.55;;;9.90;;
60979;SDS011;46851;49.160;8.980;2023-02-28T14:14:00;17.50;;;10.82;;
60979;SDS011;46851;49.160;8.980;2023-02-28T14:16:27;15.40;;;9.73;;
60979;SDS011;46851;49.160;8.980;2023-02-28T14:18:58;16.45;;;10.32;;
60979;SDS011;46851;49.160;8.980;2023-02-28T14:21:30;16.67;;;10.20;;
60979;SDS011;46851;49.160;8.980;2023-02-28T14:24:08;14.82;;;9.30;;
60979;SDS011;46851;49.160;8.980;2023-02-28T14:31:54;14.90;;;9.23;;
60979;SDS011;46851;49.160;8.980;2023-02-28T14:36:58;15.35;;;10.13;;
60979;SDS011;46851;49.160;8.980;2023-02-28T14:39:26;16.70;;;10.32;;
60979;SDS011;46851;49.160;8.980;2023-02-28T14:41:55;14.60;;;10.02;;
60979;SDS011;46851;49.160;8.980;2023-02-28T14:44:28;17.83;;;9.32;;
60979;SDS011;46851;49.160;8.980;2023-02-28T14:46:55;13.18;;;9.65;;
60979;SDS011;46851;49.160;8.980;2023-02-28T14:54:36;15.40;;;9.88;;
60979;SDS011;46851;49.160;8.980;2023-02-28T14:57:03;14.82;;;9.40;;
60979;SDS011;46851;49.160;8.980;2023-02-28T14:59:30;17.52;;;9.93;;
60979;SDS011;46851;49.160;8.980;2023-02-28T15:04:41;16.55;;;10.10;;
60979;SDS011;46851;49.160;8.980;2023-02-28T15:07:08;15.30;;;10.13;;
60979;SDS011;46851;49.160;8.980;2023-02-28T15:09:34;15.55;;;9.70;;
60979;SDS011;46851;49.160;8.980;2023-02-28T15:12:00;15.48;;;10.35;;
60979;SDS011;46851;49.160;8.980;2023-02-28T15:14:26;17.55;;;10.20;;
60979;SDS011;46851;49.160;8.980;2023-02-28T15:16:56;15.55;;;9.80;;
60979;SDS011;46851;49.160;8.980;2023-02-28T15:19:24;20.48;;;9.63;;
60979;SDS011;46851;49.160;8.980;2023-02-28T15:21:54;29.45;;;15.10;;
60979;SDS011;46851;49.160;8.980;2023-02-28T15:26:56;15.10;;;10.65;;
60979;SDS011;46851;49.160;8.980;2023-02-28T15:29:23;14.32;;;9.82;;
60979;SDS011;46851;49.160;8.980;2023-02-28T15:31:53;18.92;;;10.43;;
60979;SDS011;46851;49.160;8.980;2023-02-28T15:34:40;16.98;;;9.75;;
60979;SDS011;46851;49.160;8.980;2023-02-28T15:39:51;15.57;;;8.82;;
60979;SDS011;46851;49.160;8.980;2023-02-28T15:42:20;15.40;;;9.13;;
60979;SDS011;46851;49.160;8.980;2023-02-28T15:44:47;18.63;;;10.43;;
60979;SDS011;46851;49.160;8.980;2023-02-28T15:47:23;16.65;;;10.13;;
60979;SDS011;46851;49.160;8.980;2023-02-28T15:52:16;16.95;;;9.55;;
60979;SDS011;46851;49.160;8.980;2023-02-28T15:54:43;13.88;;;9.25;;
60979;SDS011;46851;49.160;8.980;2023-02-28T15:57:19;15.88;;;10.18;;
60979;SDS011;46851;49.160;8.980;2023-02-28T15:59:51;15.88;;;9.45;;
60979;SDS011;46851;49.160;8.980;2023-02-28T16:02:19;17.02;;;9.35;;
60979;SDS011;46851;49.160;8.980;2023-02-28T16:07:21;19.38;;;9.60;;
60979;SDS011;46851;49.160;8.980;2023-02-28T16:09:47;16.60;;;9.63;;
60979;SDS011;46851;49.160;8.980;2023-02-28T16:12:13;16.67;;;10.05;;
60979;SDS011;46851;49.160;8.980;2023-02-28T16:14:39;16.73;;;10.18;;
60979;SDS011;46851;49.160;8.980;2023-02-28T16:17:16;15.65;;;9.00;;
60979;SDS011;46851;49.160;8.980;2023-02-28T16:19:44;15.55;;;9.40;;
60979;SDS011;46851;49.160;8.980;2023-02-28T16:22:10;15.25;;;10.23;;
60979;SDS011;46851;49.160;8.980;2023-02-28T16:24:36;16.67;;;9.45;;
60979;SDS011;46851;49.160;8.980;2023-02-28T16:27:03;16.40;;;9.18;;
60979;SDS011;46851;49.160;8.980;2023-02-28T16:29:31;14.25;;;9.38;;
60979;SDS011;46851;49.160;8.980;2023-02-28T16:31:57;15.18;;;9.95;;
60979;SDS011;46851;49.160;8.980;2023-02-28T16:34:24;16.80;;;9.60;;
60979;SDS011;46851;49.160;8.980;2023-02-28T16:36:50;16.98;;;10.40;;
60979;SDS011;46851;49.160;8.980;2023-02-28T16:39:16;16.70;;;10.07;;
60979;SDS011;46851;49.160;8.980;2023-02-28T16:41:45;19.70;;;10.38;;
60979;SDS011;46851;49.160;8.980;2023-02-28T16:44:21;24.15;;;12.65;;
60979;SDS011;46851;49.160;8.980;2023-02-28T16:46:49;19.60;;;12.18;;
60979;SDS011;46851;49.160;8.980;2023-02-28T16:49:15;18.20;;;10.38;;
60979;SDS011;46851;49.160;8.980;2023-02-28T16:51:41;14.88;;;9.13;;
60979;SDS011;46851;49.160;8.980;2023-02-28T16:54:07;17.10;;;9.88;;
60979;SDS011;46851;49.160;8.980;2023-02-28T16:56:33;14.57;;;9.95;;
60979;SDS011;46851;49.160;8.980;2023-02-28T16:59:00;18.45;;;10.70;;
60979;SDS011;46851;49.160;8.980;2023-02-28T17:01:27;14.15;;;9.02;;
60979;SDS011;46851;49.160;8.980;2023-02-28T17:03:54;18.88;;;10.98;;
60979;SDS011;46851;49.160;8.980;2023-02-28T17:06:21;17.27;;;10.75;;
60979;SDS011;46851;49.160;8.980;2023-02-28T17:08:48;16.45;;;9.77;;
60979;SDS011;46851;49.160;8.980;2023-02-28T17:11:14;15.75;;;9.63;;
60979;SDS011;46851;49.160;8.980;2023-02-28T17:13:40;14.25;;;10.02;;
60979;SDS011;46851;49.160;8.980;2023-02-28T17:16:09;17.88;;;9.50;;
60979;SDS011;46851;49.160;8.980;2023-02-28T17:18:39;15.45;;;8.60;;
60979;SDS011;46851;49.160;8.980;2023-02-28T17:21:09;14.80;;;9.38;;
60979;SDS011;46851;49.160;8.980;2023-02-28T17:23:35;20.10;;;10.60;;
60979;SDS011;46851;49.160;8.980;2023-02-28T17:26:02;18.98;;;9.60;;
60979;SDS011;46851;49.160;8.980;2023-02-28T17:28:30;15.55;;;9.50;;
60979;SDS011;46851;49.160;8.980;2023-02-28T17:30:56;17.15;;;10.07;;
60979;SDS011;46851;49.160;8.980;2023-02-28T17:33:22;20.73;;;10.55;;